createdAt,value
2019-05-25T00:04:11.615Z,8.83
2019-05-25T00:09:13.354Z,9.40
2019-05-25T00:14:15.437Z,9.47
2019-05-25T00:19:19.566Z,10.30
2019-05-25T00:24:21.555Z,11.73
2019-05-25T00:29:23.363Z,11.13
2019-05-25T00:34:25.180Z,11.53
2019-05-25T00:39:27.070Z,11.60
2019-05-25T00:44:30.518Z,12.40
2019-05-25T00:49:32.369Z,12.43
2019-05-25T00:54:34.375Z,12.17
2019-05-25T00:59:36.203Z,11.83
2019-05-25T01:04:39.682Z,12.27
2019-05-25T01:09:41.550Z,11.63
2019-05-25T01:14:43.517Z,11.10
2019-05-25T01:19:45.319Z,12.27
2019-05-25T01:24:47.167Z,12.43
2019-05-25T01:29:48.960Z,12.87
2019-05-25T01:34:53.956Z,11.87
2019-05-25T01:39:57.976Z,12.57
2019-05-25T01:45:01.554Z,12.73
2019-05-25T01:50:03.576Z,12.87
2019-05-25T01:55:05.852Z,11.87
2019-05-25T02:00:09.567Z,12.60
2019-05-25T02:05:12.565Z,14.03
2019-05-25T02:10:14.706Z,12.97
2019-05-25T02:15:17.014Z,12.53
2019-05-25T02:20:18.902Z,13.17
2019-05-25T02:25:20.784Z,12.77
2019-05-25T02:30:26.731Z,12.77
2019-05-25T02:35:32.116Z,13.07
2019-05-25T02:40:34.101Z,13.63
2019-05-25T02:45:37.109Z,13.33
2019-05-25T02:50:38.922Z,13.40
2019-05-25T02:55:41.062Z,14.70
2019-05-25T03:00:42.868Z,13.63
2019-05-25T03:05:47.886Z,14.23
2019-05-25T03:10:50.302Z,15.50
2019-05-25T03:15:52.282Z,16.03
2019-05-25T03:20:54.188Z,16.40
2019-05-25T03:25:55.998Z,16.87
2019-05-25T03:30:57.826Z,15.87
2019-05-25T03:35:59.885Z,16.70
2019-05-25T03:41:01.588Z,16.60
2019-05-25T03:46:03.392Z,16.50
2019-05-25T03:51:05.235Z,16.23
2019-05-25T03:56:07.104Z,16.47
2019-05-25T04:01:09.311Z,16.27
2019-05-25T04:06:12.931Z,16.57
2019-05-25T04:11:14.765Z,16.73
2019-05-25T04:16:19.068Z,16.60
2019-05-25T04:21:20.776Z,15.60
2019-05-25T04:26:23.080Z,15.67
2019-05-25T04:31:25.203Z,14.50
2019-05-25T04:36:28.530Z,12.40
2019-05-25T04:41:33.758Z,11.67
2019-05-25T04:46:37.344Z,9.67
2019-05-25T04:51:39.131Z,8.67
2019-05-25T04:56:41.092Z,7.30
2019-05-25T05:01:42.838Z,7.33
2019-05-25T05:06:44.779Z,6.70
2019-05-25T05:11:46.568Z,6.83
2019-05-25T05:16:48.398Z,6.90
2019-05-25T05:21:50.180Z,5.80
2019-05-25T05:26:55.823Z,5.97
2019-05-25T05:31:59.030Z,5.60
2019-05-25T05:37:02.308Z,6.33
2019-05-25T05:42:07.085Z,6.20
2019-05-25T05:47:13.476Z,5.67
2019-05-25T05:52:17.922Z,5.57
2019-05-25T05:57:22.018Z,5.40
2019-05-25T06:02:26.375Z,5.20
2019-05-25T06:07:29.994Z,5.07
2019-05-25T06:12:31.705Z,5.40
2019-05-25T06:17:33.419Z,5.37
2019-05-25T06:22:35.322Z,5.83
2019-05-25T06:27:38.550Z,5.77
2019-05-25T06:32:40.385Z,4.73
2019-05-25T06:37:44.706Z,4.47
2019-05-25T06:42:46.565Z,5.03
2019-05-25T06:47:48.605Z,5.30
2019-05-25T06:52:50.698Z,4.70
2019-05-25T06:57:55.906Z,5.53
2019-05-25T07:02:57.827Z,5.33
2019-05-25T07:08:02.687Z,5.03
2019-05-25T07:13:04.534Z,5.07
2019-05-25T07:18:06.309Z,4.70
2019-05-25T07:23:08.107Z,4.70
2019-05-25T07:28:10.022Z,4.47
2019-05-25T07:33:15.106Z,5.20
2019-05-25T07:38:18.355Z,4.40
2019-05-25T07:43:20.348Z,4.80
2019-05-25T07:48:23.737Z,4.70
2019-05-25T07:53:27.129Z,5.10
2019-05-25T07:58:28.934Z,4.93
2019-05-25T08:03:30.736Z,5.60
2019-05-25T08:08:32.610Z,5.00
2019-05-25T08:13:34.602Z,4.93
2019-05-25T08:18:40.571Z,4.53
2019-05-25T08:23:42.362Z,4.30
2019-05-25T08:28:44.174Z,5.00
2019-05-25T08:33:46.100Z,4.67
2019-05-25T08:38:50.387Z,4.30
2019-05-25T08:43:54.018Z,3.63
2019-05-25T08:48:55.814Z,3.87
2019-05-25T08:53:57.782Z,3.63
2019-05-25T08:59:01.409Z,3.90
2019-05-25T09:04:04.514Z,3.90
2019-05-25T09:09:15.565Z,3.23
2019-05-25T09:14:17.404Z,2.73
2019-05-25T09:19:19.276Z,2.93
2019-05-25T09:24:21.133Z,3.60
2019-05-25T09:29:25.057Z,3.60
2019-05-25T09:34:26.904Z,3.43
2019-05-25T09:39:28.766Z,4.30
2019-05-25T09:44:30.807Z,4.00
2019-05-25T09:49:32.611Z,3.47
2019-05-25T09:54:34.459Z,3.83
2019-05-25T09:59:39.112Z,3.67
2019-05-25T10:04:41.201Z,3.83
2019-05-25T10:09:43.006Z,4.40
2019-05-25T10:14:46.237Z,3.10
2019-05-25T10:19:50.264Z,3.70
2019-05-25T10:24:52.724Z,3.63
2019-05-25T10:29:54.456Z,3.73
2019-05-25T10:34:57.671Z,3.60
2019-05-25T10:39:59.481Z,3.80
2019-05-25T10:45:02.693Z,4.20
2019-05-25T10:50:06.727Z,4.20
2019-05-25T10:55:09.280Z,3.97
2019-05-25T11:00:15.433Z,3.70
2019-05-25T11:05:17.839Z,3.90
2019-05-25T11:10:19.885Z,4.00
2019-05-25T11:15:21.964Z,4.07
2019-05-25T11:20:23.806Z,4.00
2019-05-25T11:25:25.793Z,4.47
2019-05-25T11:30:29.172Z,4.43
2019-05-25T11:35:31.281Z,4.37
2019-05-25T11:40:33.115Z,4.70
2019-05-25T11:45:35.058Z,5.70
2019-05-25T11:50:36.862Z,4.53
2019-05-25T11:55:39.801Z,4.60
2019-05-25T12:00:41.657Z,4.33
2019-05-25T12:05:43.472Z,5.43
2019-05-25T12:10:47.699Z,5.10
2019-05-25T12:15:49.578Z,5.03
2019-05-25T12:20:52.590Z,5.30
2019-05-25T12:25:54.583Z,5.07
2019-05-25T12:30:56.381Z,5.20
2019-05-25T12:35:58.418Z,6.00
2019-05-25T12:41:02.429Z,6.07
2019-05-25T12:46:04.522Z,5.57
2019-05-25T12:51:06.341Z,6.03
2019-05-25T12:56:10.969Z,7.33
2019-05-25T13:01:12.768Z,6.80
2019-05-25T13:06:17.986Z,6.27
2019-05-25T13:11:20.979Z,6.00
2019-05-25T13:16:22.747Z,6.70
2019-05-25T13:21:24.569Z,6.50
2019-05-25T13:26:26.533Z,6.33
2019-05-25T13:31:30.776Z,6.40
2019-05-25T13:36:32.643Z,6.40
2019-05-25T13:41:36.428Z,8.07
2019-05-25T13:46:38.465Z,8.13
2019-05-25T13:51:40.268Z,8.17
2019-05-25T13:56:42.012Z,8.00
2019-05-25T14:01:45.336Z,8.23
2019-05-25T14:06:47.327Z,7.90
2019-05-25T14:11:49.215Z,6.87
2019-05-25T14:16:51.014Z,8.10
2019-05-25T14:21:52.811Z,7.37
2019-05-25T14:26:54.910Z,8.37
2019-05-25T14:31:56.591Z,9.43
2019-05-25T14:36:58.570Z,8.23
2019-05-25T14:42:00.278Z,8.47
2019-05-25T14:47:02.214Z,9.20
2019-05-25T14:52:04.040Z,9.53
2019-05-25T14:57:05.919Z,8.50
2019-05-25T15:02:11.176Z,8.27
2019-05-25T15:07:16.045Z,8.23
2019-05-25T15:12:18.494Z,7.80
2019-05-25T15:17:20.274Z,6.97
2019-05-25T15:22:26.765Z,6.90
2019-05-25T15:27:28.936Z,6.07
2019-05-25T15:32:30.757Z,6.80
2019-05-25T15:37:34.480Z,7.70
2019-05-25T15:42:36.235Z,6.43
2019-05-25T15:47:38.284Z,6.30
2019-05-25T15:52:42.166Z,6.17
2019-05-25T15:57:45.769Z,5.80
2019-05-25T16:02:51.693Z,5.73
2019-05-25T16:07:53.823Z,5.80
2019-05-25T16:12:58.615Z,5.23
2019-05-25T16:18:03.919Z,4.90
2019-05-25T16:23:05.766Z,4.90
2019-05-25T16:28:07.683Z,4.40
2019-05-25T16:33:12.856Z,5.33
2019-05-25T16:38:13.195Z,5.23
2019-05-25T16:43:15.137Z,4.80
2019-05-25T16:48:16.930Z,5.27
2019-05-25T16:53:18.631Z,5.10
2019-05-25T16:58:20.422Z,5.20
2019-05-25T17:03:28.002Z,4.40
2019-05-25T17:08:25.877Z,4.60
2019-05-25T17:13:27.915Z,5.20
2019-05-25T17:18:29.709Z,5.33
2019-05-25T17:23:31.524Z,4.93
2019-05-25T17:28:33.323Z,5.63
2019-05-25T17:33:45.865Z,5.20
2019-05-25T17:38:42.570Z,4.63
2019-05-25T17:43:44.435Z,4.60
2019-05-25T17:48:46.251Z,5.17
2019-05-25T17:53:48.062Z,4.57
2019-05-25T17:58:49.866Z,4.87
2019-05-25T18:04:06.725Z,4.73
2019-05-25T18:08:57.927Z,5.07
2019-05-25T18:14:00.009Z,5.53
2019-05-25T18:19:01.854Z,6.30
2019-05-25T18:24:03.999Z,5.07
2019-05-25T18:29:05.749Z,5.53
2019-05-25T18:34:21.777Z,5.40
2019-05-25T18:39:15.186Z,5.27
2019-05-25T18:44:16.989Z,4.77
2019-05-25T18:49:18.802Z,5.00
2019-05-25T18:54:20.600Z,4.70
2019-05-25T18:59:23.626Z,4.70
2019-05-25T19:04:42.156Z,4.80
2019-05-25T19:09:29.362Z,5.00
2019-05-25T19:14:31.435Z,6.40
2019-05-25T19:19:33.233Z,4.90
2019-05-25T19:24:35.038Z,5.37
2019-05-25T19:29:36.751Z,5.43
2019-05-25T19:34:38.582Z,4.27
2019-05-25T19:39:40.373Z,4.30
2019-05-25T19:44:42.386Z,4.03
2019-05-25T19:49:46.313Z,4.23
2019-05-25T19:54:48.221Z,4.27
2019-05-25T19:59:49.917Z,4.43
2019-05-25T20:04:51.773Z,4.30
2019-05-25T20:09:53.509Z,4.13
2019-05-25T20:14:56.524Z,4.23
2019-05-25T20:19:58.344Z,4.60
2019-05-25T20:25:00.424Z,3.70
2019-05-25T20:30:02.216Z,4.27
2019-05-25T20:35:04.143Z,3.70
2019-05-25T20:40:06.098Z,3.87
2019-05-25T20:45:07.995Z,4.17
2019-05-25T20:50:09.943Z,3.40
2019-05-25T20:55:11.778Z,3.40
2019-05-25T21:00:17.049Z,3.10
2019-05-25T21:05:18.870Z,3.53
2019-05-25T21:10:20.716Z,3.20
2019-05-25T21:15:22.676Z,3.93
2019-05-25T21:20:24.413Z,4.13
2019-05-25T21:25:28.632Z,3.70
2019-05-25T21:30:30.433Z,4.10
2019-05-25T21:35:32.041Z,4.50
2019-05-25T21:40:33.896Z,4.10
2019-05-25T21:45:35.888Z,4.10
2019-05-25T21:50:37.736Z,3.93
2019-05-25T21:55:39.795Z,4.30
2019-05-25T22:00:43.780Z,3.80
2019-05-25T22:05:48.654Z,3.80
2019-05-25T22:10:50.478Z,4.00
2019-05-25T22:15:52.573Z,4.33
2019-05-25T22:20:54.369Z,4.53
2019-05-25T22:25:56.217Z,5.00
2019-05-25T22:30:58.677Z,5.83
2019-05-25T22:36:00.543Z,5.70
2019-05-25T22:41:02.379Z,7.67
2019-05-25T22:46:04.541Z,7.07
2019-05-25T22:51:06.608Z,7.43
2019-05-25T22:56:08.825Z,8.23
2019-05-25T23:01:12.977Z,8.17
2019-05-25T23:06:14.804Z,8.70
2019-05-25T23:11:16.784Z,8.57
2019-05-25T23:16:21.098Z,9.10
2019-05-25T23:21:22.773Z,8.83
2019-05-25T23:26:24.366Z,9.17
2019-05-25T23:31:26.073Z,11.10
2019-05-25T23:36:27.927Z,11.17
2019-05-25T23:41:29.681Z,11.70
2019-05-25T23:46:31.594Z,11.17
2019-05-25T23:51:33.381Z,12.40
2019-05-25T23:56:35.239Z,14.53
